sensor_id;sensor_type;location;lat;lon;timestamp;temperature;humidity
12602;DHT22;30282;16.436;99.370;2023-07-29T00:02:16;28.00;99.90
12602;DHT22;30282;16.436;99.370;2023-07-29T00:04:46;28.00;99.90
12602;DHT22;30282;16.436;99.370;2023-07-29T00:07:16;28.10;99.90
12602;DHT22;30282;16.436;99.370;2023-07-29T00:09:47;28.10;99.90
12602;DHT22;30282;16.436;99.370;2023-07-29T00:12:16;28.20;99.90
12602;DHT22;30282;16.436;99.370;2023-07-29T00:14:45;28.10;99.90
12602;DHT22;30282;16.436;99.370;2023-07-29T00:17:14;28.20;99.90
12602;DHT22;30282;16.436;99.370;2023-07-29T00:19:43;28.20;99.90
12602;DHT22;30282;16.436;99.370;2023-07-29T00:22:13;28.20;99.90
12602;DHT22;30282;16.436;99.370;2023-07-29T00:24:42;28.20;99.90
12602;DHT22;30282;16.436;99.370;2023-07-29T00:27:12;28.20;99.90
12602;DHT22;30282;16.436;99.370;2023-07-29T00:29:41;28.20;99.90
12602;DHT22;30282;16.436;99.370;2023-07-29T00:32:10;28.30;99.90
12602;DHT22;30282;16.436;99.370;2023-07-29T00:34:42;28.30;99.90
12602;DHT22;30282;16.436;99.370;2023-07-29T00:37:11;28.30;99.90
12602;DHT22;30282;16.436;99.370;2023-07-29T00:39:43;28.30;99.90
12602;DHT22;30282;16.436;99.370;2023-07-29T00:42:14;28.30;99.90
12602;DHT22;30282;16.436;99.370;2023-07-29T00:44:43;28.40;99.90
12602;DHT22;30282;16.436;99.370;2023-07-29T00:47:13;28.40;99.90
12602;DHT22;30282;16.436;99.370;2023-07-29T00:49:44;28.40;99.90
12602;DHT22;30282;16.436;99.370;2023-07-29T00:52:13;28.40;99.90
12602;DHT22;30282;16.436;99.370;2023-07-29T00:54:43;28.40;99.90
12602;DHT22;30282;16.436;99.370;2023-07-29T00:57:15;28.40;99.90
12602;DHT22;30282;16.436;99.370;2023-07-29T00:59:45;28.40;99.90
12602;DHT22;30282;16.436;99.370;2023-07-29T01:02:15;28.40;99.90
12602;DHT22;30282;16.436;99.370;2023-07-29T01:04:44;28.40;99.90
12602;DHT22;30282;16.436;99.370;2023-07-29T01:07:19;28.40;99.90
12602;DHT22;30282;16.436;99.370;2023-07-29T01:09:55;28.40;99.90
12602;DHT22;30282;16.436;99.370;2023-07-29T01:12:33;28.40;99.90
12602;DHT22;30282;16.436;99.370;2023-07-29T01:15:13;28.40;99.90
12602;DHT22;30282;16.436;99.370;2023-07-29T01:17:48;28.30;99.90
12602;DHT22;30282;16.436;99.370;2023-07-29T01:20:19;28.30;99.90
12602;DHT22;30282;16.436;99.370;2023-07-29T01:22:49;28.40;99.90
12602;DHT22;30282;16.436;99.370;2023-07-29T01:25:19;28.40;99.90
12602;DHT22;30282;16.436;99.370;2023-07-29T01:27:52;28.50;99.90
12602;DHT22;30282;16.436;99.370;2023-07-29T01:30:28;28.50;99.90
12602;DHT22;30282;16.436;99.370;2023-07-29T01:33:06;28.60;99.90
12602;DHT22;30282;16.436;99.370;2023-07-29T01:35:42;28.70;99.90
12602;DHT22;30282;16.436;99.370;2023-07-29T01:38:16;28.70;99.90
12602;DHT22;30282;16.436;99.370;2023-07-29T01:40:49;28.70;99.90
12602;DHT22;30282;16.436;99.370;2023-07-29T01:43:20;28.80;99.90
12602;DHT22;30282;16.436;99.370;2023-07-29T01:45:50;28.80;99.90
12602;DHT22;30282;16.436;99.370;2023-07-29T01:48:19;28.80;99.90
12602;DHT22;30282;16.436;99.370;2023-07-29T01:50:48;28.90;99.90
12602;DHT22;30282;16.436;99.370;2023-07-29T01:53:18;28.90;99.90
12602;DHT22;30282;16.436;99.370;2023-07-29T01:55:49;28.90;99.90
12602;DHT22;30282;16.436;99.370;2023-07-29T01:58:19;28.90;99.90
12602;DHT22;30282;16.436;99.370;2023-07-29T02:00:49;28.90;99.90
12602;DHT22;30282;16.436;99.370;2023-07-29T02:03:18;29.00;99.90
12602;DHT22;30282;16.436;99.370;2023-07-29T02:05:47;29.00;99.90
12602;DHT22;30282;16.436;99.370;2023-07-29T02:08:16;29.10;99.90
12602;DHT22;30282;16.436;99.370;2023-07-29T02:10:50;29.10;99.90
12602;DHT22;30282;16.436;99.370;2023-07-29T02:13:32;29.10;99.90
12602;DHT22;30282;16.436;99.370;2023-07-29T02:16:01;29.10;99.90
12602;DHT22;30282;16.436;99.370;2023-07-29T02:18:35;29.10;99.90
12602;DHT22;30282;16.436;99.370;2023-07-29T02:21:06;29.20;99.90
12602;DHT22;30282;16.436;99.370;2023-07-29T02:23:36;29.30;99.90
12602;DHT22;30282;16.436;99.370;2023-07-29T02:26:06;29.30;99.90
12602;DHT22;30282;16.436;99.370;2023-07-29T02:28:36;29.40;99.90
12602;DHT22;30282;16.436;99.370;2023-07-29T02:31:14;29.40;99.90
12602;DHT22;30282;16.436;99.370;2023-07-29T02:33:44;29.50;99.90
12602;DHT22;30282;16.436;99.370;2023-07-29T02:36:13;29.50;99.90
12602;DHT22;30282;16.436;99.370;2023-07-29T02:38:43;29.50;99.90
12602;DHT22;30282;16.436;99.370;2023-07-29T02:41:14;29.50;99.90
12602;DHT22;30282;16.436;99.370;2023-07-29T02:43:43;29.60;99.90
12602;DHT22;30282;16.436;99.370;2023-07-29T02:46:12;29.70;99.90
12602;DHT22;30282;16.436;99.370;2023-07-29T02:48:42;29.80;99.90
12602;DHT22;30282;16.436;99.370;2023-07-29T02:51:11;29.70;99.90
12602;DHT22;30282;16.436;99.370;2023-07-29T02:53:40;29.70;99.90
12602;DHT22;30282;16.436;99.370;2023-07-29T02:56:10;29.80;99.90
12602;DHT22;30282;16.436;99.370;2023-07-29T02:58:40;29.70;99.90
12602;DHT22;30282;16.436;99.370;2023-07-29T03:01:10;29.80;99.90
12602;DHT22;30282;16.436;99.370;2023-07-29T03:03:39;29.90;99.90
12602;DHT22;30282;16.436;99.370;2023-07-29T03:06:10;29.90;99.90
12602;DHT22;30282;16.436;99.370;2023-07-29T03:08:39;29.90;99.90
12602;DHT22;30282;16.436;99.370;2023-07-29T03:11:09;30.00;99.90
12602;DHT22;30282;16.436;99.370;2023-07-29T03:13:40;30.00;99.90
12602;DHT22;30282;16.436;99.370;2023-07-29T03:16:19;30.10;99.90
12602;DHT22;30282;16.436;99.370;2023-07-29T03:18:57;30.10;99.90
12602;DHT22;30282;16.436;99.370;2023-07-29T03:21:27;30.10;99.90
12602;DHT22;30282;16.436;99.370;2023-07-29T03:24:09;30.20;99.90
12602;DHT22;30282;16.436;99.370;2023-07-29T03:26:39;30.30;99.90
12602;DHT22;30282;16.436;99.370;2023-07-29T03:29:13;30.40;99.90
12602;DHT22;30282;16.436;99.370;2023-07-29T03:31:43;30.60;99.90
12602;DHT22;30282;16.436;99.370;2023-07-29T03:34:12;30.70;99.90
12602;DHT22;30282;16.436;99.370;2023-07-29T03:36:41;31.00;99.90
12602;DHT22;30282;16.436;99.370;2023-07-29T03:39:12;31.10;99.90
12602;DHT22;30282;16.436;99.370;2023-07-29T03:41:41;31.20;99.90
12602;DHT22;30282;16.436;99.370;2023-07-29T03:44:12;31.30;99.90
12602;DHT22;30282;16.436;99.370;2023-07-29T03:46:41;31.30;99.90
12602;DHT22;30282;16.436;99.370;2023-07-29T03:49:11;31.20;99.90
12602;DHT22;30282;16.436;99.370;2023-07-29T03:51:40;31.20;99.90
12602;DHT22;30282;16.436;99.370;2023-07-29T03:54:09;31.20;99.90
12602;DHT22;30282;16.436;99.370;2023-07-29T03:56:38;31.30;99.90
12602;DHT22;30282;16.436;99.370;2023-07-29T03:59:07;31.40;99.90
12602;DHT22;30282;16.436;99.370;2023-07-29T04:01:38;31.50;99.90
12602;DHT22;30282;16.436;99.370;2023-07-29T04:04:07;31.40;99.90
12602;DHT22;30282;16.436;99.370;2023-07-29T04:06:36;31.50;99.90
12602;DHT22;30282;16.436;99.370;2023-07-29T04:09:05;31.60;99.90
12602;DHT22;30282;16.436;99.370;2023-07-29T04:11:34;31.60;99.90
12602;DHT22;30282;16.436;99.370;2023-07-29T04:14:04;31.70;99.90
12602;DHT22;30282;16.436;99.370;2023-07-29T04:16:33;31.80;99.90
12602;DHT22;30282;16.436;99.370;2023-07-29T04:19:04;31.80;99.90
12602;DHT22;30282;16.436;99.370;2023-07-29T04:21:33;31.80;99.90
12602;DHT22;30282;16.436;99.370;2023-07-29T04:24:02;31.80;99.90
12602;DHT22;30282;16.436;99.370;2023-07-29T04:26:31;31.80;99.90
12602;DHT22;30282;16.436;99.370;2023-07-29T04:29:01;31.80;99.90
12602;DHT22;30282;16.436;99.370;2023-07-29T04:31:30;31.80;99.90
12602;DHT22;30282;16.436;99.370;2023-07-29T04:33:59;31.80;99.90
12602;DHT22;30282;16.436;99.370;2023-07-29T04:36:30;31.90;99.90
12602;DHT22;30282;16.436;99.370;2023-07-29T04:39:01;31.90;99.90
12602;DHT22;30282;16.436;99.370;2023-07-29T04:41:30;32.00;99.90
12602;DHT22;30282;16.436;99.370;2023-07-29T04:43:59;32.10;99.90
12602;DHT22;30282;16.436;99.370;2023-07-29T04:46:29;32.20;99.90
12602;DHT22;30282;16.436;99.370;2023-07-29T04:48:58;32.20;99.90
12602;DHT22;30282;16.436;99.370;2023-07-29T04:51:28;32.40;99.90
12602;DHT22;30282;16.436;99.370;2023-07-29T04:53:58;32.50;99.90
12602;DHT22;30282;16.436;99.370;2023-07-29T04:56:27;32.50;99.90
12602;DHT22;30282;16.436;99.370;2023-07-29T04:58:56;32.50;99.90
12602;DHT22;30282;16.436;99.370;2023-07-29T05:01:25;32.60;99.90
12602;DHT22;30282;16.436;99.370;2023-07-29T05:03:54;32.70;99.90
12602;DHT22;30282;16.436;99.370;2023-07-29T05:06:28;32.70;99.90
12602;DHT22;30282;16.436;99.370;2023-07-29T05:08:58;32.70;99.90
12602;DHT22;30282;16.436;99.370;2023-07-29T05:11:27;32.60;99.90
12602;DHT22;30282;16.436;99.370;2023-07-29T05:13:56;32.50;99.90
12602;DHT22;30282;16.436;99.370;2023-07-29T05:16:25;32.50;99.90
12602;DHT22;30282;16.436;99.370;2023-07-29T05:18:54;32.60;99.90
12602;DHT22;30282;16.436;99.370;2023-07-29T05:21:25;32.60;99.90
12602;DHT22;30282;16.436;99.370;2023-07-29T05:23:56;32.60;99.90
12602;DHT22;30282;16.436;99.370;2023-07-29T05:26:25;32.60;99.90
12602;DHT22;30282;16.436;99.370;2023-07-29T05:28:54;32.60;99.90
12602;DHT22;30282;16.436;99.370;2023-07-29T05:31:24;32.50;99.90
12602;DHT22;30282;16.436;99.370;2023-07-29T05:33:59;32.60;99.90
12602;DHT22;30282;16.436;99.370;2023-07-29T05:36:29;32.60;99.90
12602;DHT22;30282;16.436;99.370;2023-07-29T05:39:00;32.60;99.90
12602;DHT22;30282;16.436;99.370;2023-07-29T05:41:32;32.60;99.90
12602;DHT22;30282;16.436;99.370;2023-07-29T05:44:01;32.80;99.90
12602;DHT22;30282;16.436;99.370;2023-07-29T05:46:35;32.70;99.90
12602;DHT22;30282;16.436;99.370;2023-07-29T05:49:04;32.70;99.90
12602;DHT22;30282;16.436;99.370;2023-07-29T05:51:33;32.80;99.90
12602;DHT22;30282;16.436;99.370;2023-07-29T05:54:02;32.90;99.90
12602;DHT22;30282;16.436;99.370;2023-07-29T05:56:31;33.00;99.90
12602;DHT22;30282;16.436;99.370;2023-07-29T05:59:00;33.00;99.90
12602;DHT22;30282;16.436;99.370;2023-07-29T06:01:29;33.10;99.90
12602;DHT22;30282;16.436;99.370;2023-07-29T06:03:59;33.10;99.90
12602;DHT22;30282;16.436;99.370;2023-07-29T06:06:28;33.10;99.90
12602;DHT22;30282;16.436;99.370;2023-07-29T06:08:57;33.10;99.90
12602;DHT22;30282;16.436;99.370;2023-07-29T06:11:28;33.10;99.90
12602;DHT22;30282;16.436;99.370;2023-07-29T06:13:57;33.10;99.90
12602;DHT22;30282;16.436;99.370;2023-07-29T06:16:26;33.10;99.90
12602;DHT22;30282;16.436;99.370;2023-07-29T06:18:55;33.10;99.90
12602;DHT22;30282;16.436;99.370;2023-07-29T06:21:24;33.10;99.90
12602;DHT22;30282;16.436;99.370;2023-07-29T06:23:56;33.10;99.90
12602;DHT22;30282;16.436;99.370;2023-07-29T06:26:29;33.10;99.90
12602;DHT22;30282;16.436;99.370;2023-07-29T06:28:58;33.10;99.90
12602;DHT22;30282;16.436;99.370;2023-07-29T06:31:30;33.10;99.90
12602;DHT22;30282;16.436;99.370;2023-07-29T06:33:59;33.10;99.90
12602;DHT22;30282;16.436;99.370;2023-07-29T06:36:28;33.20;99.90
12602;DHT22;30282;16.436;99.370;2023-07-29T06:38:57;33.20;99.90
12602;DHT22;30282;16.436;99.370;2023-07-29T06:41:34;33.20;99.90
12602;DHT22;30282;16.436;99.370;2023-07-29T06:44:11;33.30;99.90
12602;DHT22;30282;16.436;99.370;2023-07-29T06:46:40;33.20;99.90
12602;DHT22;30282;16.436;99.370;2023-07-29T06:49:09;33.30;99.90
12602;DHT22;30282;16.436;99.370;2023-07-29T06:51:38;33.40;99.90
12602;DHT22;30282;16.436;99.370;2023-07-29T06:54:07;33.40;99.90
12602;DHT22;30282;16.436;99.370;2023-07-29T06:56:36;33.40;99.90
12602;DHT22;30282;16.436;99.370;2023-07-29T06:59:07;33.50;99.90
12602;DHT22;30282;16.436;99.370;2023-07-29T07:01:36;33.50;99.90
12602;DHT22;30282;16.436;99.370;2023-07-29T07:04:05;33.50;99.90
12602;DHT22;30282;16.436;99.370;2023-07-29T07:06:35;33.50;99.90
12602;DHT22;30282;16.436;99.370;2023-07-29T07:09:04;33.40;99.90
12602;DHT22;30282;16.436;99.370;2023-07-29T07:11:33;33.50;99.90
12602;DHT22;30282;16.436;99.370;2023-07-29T07:14:03;33.50;99.90
12602;DHT22;30282;16.436;99.370;2023-07-29T07:16:34;33.50;99.90
12602;DHT22;30282;16.436;99.370;2023-07-29T07:19:03;33.50;99.90
12602;DHT22;30282;16.436;99.370;2023-07-29T07:21:33;33.50;99.90
12602;DHT22;30282;16.436;99.370;2023-07-29T07:24:07;33.50;99.90
12602;DHT22;30282;16.436;99.370;2023-07-29T07:26:36;33.50;99.90
12602;DHT22;30282;16.436;99.370;2023-07-29T07:29:05;33.50;99.90
12602;DHT22;30282;16.436;99.370;2023-07-29T07:31:36;33.60;99.90
12602;DHT22;30282;16.436;99.370;2023-07-29T07:34:05;33.60;99.90
12602;DHT22;30282;16.436;99.370;2023-07-29T07:36:34;33.70;99.90
12602;DHT22;30282;16.436;99.370;2023-07-29T07:39:03;33.70;99.90
12602;DHT22;30282;16.436;99.370;2023-07-29T07:41:33;33.70;99.90
12602;DHT22;30282;16.436;99.370;2023-07-29T07:44:02;33.70;99.90
12602;DHT22;30282;16.436;99.370;2023-07-29T07:46:31;33.70;99.90
12602;DHT22;30282;16.436;99.370;2023-07-29T07:49:02;33.80;99.90
12602;DHT22;30282;16.436;99.370;2023-07-29T07:51:31;33.70;99.90
12602;DHT22;30282;16.436;99.370;2023-07-29T07:54:05;33.80;99.90
12602;DHT22;30282;16.436;99.370;2023-07-29T07:56:34;33.80;99.90
12602;DHT22;30282;16.436;99.370;2023-07-29T07:59:03;33.90;99.90
12602;DHT22;30282;16.436;99.370;2023-07-29T08:01:35;33.90;99.90
12602;DHT22;30282;16.436;99.370;2023-07-29T08:04:06;33.70;99.90
12602;DHT22;30282;16.436;99.370;2023-07-29T08:06:35;33.70;99.90
12602;DHT22;30282;16.436;99.370;2023-07-29T08:09:04;33.70;99.90
12602;DHT22;30282;16.436;99.370;2023-07-29T08:11:33;33.70;99.90
12602;DHT22;30282;16.436;99.370;2023-07-29T08:14:05;33.70;99.90
12602;DHT22;30282;16.436;99.370;2023-07-29T08:16:34;33.70;99.90
12602;DHT22;30282;16.436;99.370;2023-07-29T08:19:05;33.70;99.90
12602;DHT22;30282;16.436;99.370;2023-07-29T08:21:36;33.80;99.90
12602;DHT22;30282;16.436;99.370;2023-07-29T08:24:05;33.70;99.90
12602;DHT22;30282;16.436;99.370;2023-07-29T08:26:34;33.80;99.90
12602;DHT22;30282;16.436;99.370;2023-07-29T08:29:03;33.90;99.90
12602;DHT22;30282;16.436;99.370;2023-07-29T08:31:33;34.00;99.90
12602;DHT22;30282;16.436;99.370;2023-07-29T08:34:02;33.90;99.90
12602;DHT22;30282;16.436;99.370;2023-07-29T08:36:32;33.90;99.90
12602;DHT22;30282;16.436;99.370;2023-07-29T08:39:02;33.90;99.90
12602;DHT22;30282;16.436;99.370;2023-07-29T08:41:40;33.90;99.90
12602;DHT22;30282;16.436;99.370;2023-07-29T08:44:16;33.90;99.90
12602;DHT22;30282;16.436;99.370;2023-07-29T08:46:48;33.90;99.90
12602;DHT22;30282;16.436;99.370;2023-07-29T08:49:18;33.90;99.90
12602;DHT22;30282;16.436;99.370;2023-07-29T08:51:54;34.00;99.90
12602;DHT22;30282;16.436;99.370;2023-07-29T08:54:23;34.00;99.90
12602;DHT22;30282;16.436;99.370;2023-07-29T08:56:53;34.10;99.90
12602;DHT22;30282;16.436;99.370;2023-07-29T08:59:23;34.20;99.90
12602;DHT22;30282;16.436;99.370;2023-07-29T09:01:52;34.20;99.90
12602;DHT22;30282;16.436;99.370;2023-07-29T09:04:23;34.20;99.90
12602;DHT22;30282;16.436;99.370;2023-07-29T09:06:54;34.20;99.90
12602;DHT22;30282;16.436;99.370;2023-07-29T09:09:25;34.30;99.90
12602;DHT22;30282;16.436;99.370;2023-07-29T09:11:54;34.20;99.90
12602;DHT22;30282;16.436;99.370;2023-07-29T09:14:24;34.10;99.90
12602;DHT22;30282;16.436;99.370;2023-07-29T09:16:54;34.00;99.90
12602;DHT22;30282;16.436;99.370;2023-07-29T09:19:26;34.00;99.90
12602;DHT22;30282;16.436;99.370;2023-07-29T09:21:56;34.00;99.90
12602;DHT22;30282;16.436;99.370;2023-07-29T09:24:26;34.00;99.90
12602;DHT22;30282;16.436;99.370;2023-07-29T09:26:56;34.00;99.90
12602;DHT22;30282;16.436;99.370;2023-07-29T09:29:28;33.90;99.90
12602;DHT22;30282;16.436;99.370;2023-07-29T09:32:19;33.90;99.90
12602;DHT22;30282;16.436;99.370;2023-07-29T09:34:49;34.00;99.90
12602;DHT22;30282;16.436;99.370;2023-07-29T09:37:23;34.00;99.90
12602;DHT22;30282;16.436;99.370;2023-07-29T09:39:53;34.10;99.90
12602;DHT22;30282;16.436;99.370;2023-07-29T09:42:25;34.00;99.90
12602;DHT22;30282;16.436;99.370;2023-07-29T09:44:55;34.10;99.90
12602;DHT22;30282;16.436;99.370;2023-07-29T09:47:25;34.10;99.90
12602;DHT22;30282;16.436;99.370;2023-07-29T09:49:54;34.10;99.90
12602;DHT22;30282;16.436;99.370;2023-07-29T09:52:25;34.10;99.90
12602;DHT22;30282;16.436;99.370;2023-07-29T09:54:55;34.10;99.90
12602;DHT22;30282;16.436;99.370;2023-07-29T09:57:24;34.20;99.90
12602;DHT22;30282;16.436;99.370;2023-07-29T09:59:56;34.20;99.90
12602;DHT22;30282;16.436;99.370;2023-07-29T10:02:31;34.10;99.90
12602;DHT22;30282;16.436;99.370;2023-07-29T10:05:03;34.10;99.90
12602;DHT22;30282;16.436;99.370;2023-07-29T10:07:35;34.10;99.90
12602;DHT22;30282;16.436;99.370;2023-07-29T10:10:09;34.00;99.90
12602;DHT22;30282;16.436;99.370;2023-07-29T10:12:40;34.00;99.90
12602;DHT22;30282;16.436;99.370;2023-07-29T10:15:13;34.00;99.90
12602;DHT22;30282;16.436;99.370;2023-07-29T10:17:42;34.00;99.90
12602;DHT22;30282;16.436;99.370;2023-07-29T10:20:12;34.10;99.90
12602;DHT22;30282;16.436;99.370;2023-07-29T10:22:44;34.00;99.90
12602;DHT22;30282;16.436;99.370;2023-07-29T10:25:17;34.00;99.90
12602;DHT22;30282;16.436;99.370;2023-07-29T10:27:49;34.00;99.90
12602;DHT22;30282;16.436;99.370;2023-07-29T10:30:21;33.90;99.90
12602;DHT22;30282;16.436;99.370;2023-07-29T10:32:50;33.80;99.90
12602;DHT22;30282;16.436;99.370;2023-07-29T10:35:20;33.80;99.90
12602;DHT22;30282;16.436;99.370;2023-07-29T10:37:51;33.70;99.90
12602;DHT22;30282;16.436;99.370;2023-07-29T10:40:21;33.70;99.90
12602;DHT22;30282;16.436;99.370;2023-07-29T10:43:11;33.70;99.90
12602;DHT22;30282;16.436;99.370;2023-07-29T10:45:42;33.70;99.90
12602;DHT22;30282;16.436;99.370;2023-07-29T10:48:39;33.70;99.90
12602;DHT22;30282;16.436;99.370;2023-07-29T10:51:30;33.70;99.90
12602;DHT22;30282;16.436;99.370;2023-07-29T10:54:02;33.70;99.90
12602;DHT22;30282;16.436;99.370;2023-07-29T10:56:32;33.60;99.90
12602;DHT22;30282;16.436;99.370;2023-07-29T10:59:31;33.60;99.90
12602;DHT22;30282;16.436;99.370;2023-07-29T11:02:12;33.50;99.90
12602;DHT22;30282;16.436;99.370;2023-07-29T11:04:51;33.50;99.90
12602;DHT22;30282;16.436;99.370;2023-07-29T11:07:26;33.50;99.90
12602;DHT22;30282;16.436;99.370;2023-07-29T11:10:04;33.40;99.90
12602;DHT22;30282;16.436;99.370;2023-07-29T11:12:44;33.30;99.90
12602;DHT22;30282;16.436;99.370;2023-07-29T11:15:16;33.20;99.90
12602;DHT22;30282;16.436;99.370;2023-07-29T11:17:46;33.10;99.90
12602;DHT22;30282;16.436;99.370;2023-07-29T11:20:16;33.10;99.90
12602;DHT22;30282;16.436;99.370;2023-07-29T11:22:46;33.00;99.90
12602;DHT22;30282;16.436;99.370;2023-07-29T11:25:17;32.90;99.90
12602;DHT22;30282;16.436;99.370;2023-07-29T11:27:47;32.90;99.90
12602;DHT22;30282;16.436;99.370;2023-07-29T11:30:16;32.80;99.90
12602;DHT22;30282;16.436;99.370;2023-07-29T11:32:51;32.80;99.90
12602;DHT22;30282;16.436;99.370;2023-07-29T11:35:24;32.80;99.90
12602;DHT22;30282;16.436;99.370;2023-07-29T11:37:55;32.70;99.90
12602;DHT22;30282;16.436;99.370;2023-07-29T11:40:26;32.60;99.90
12602;DHT22;30282;16.436;99.370;2023-07-29T11:42:58;32.60;99.90
12602;DHT22;30282;16.436;99.370;2023-07-29T11:45:28;32.40;99.90
12602;DHT22;30282;16.436;99.370;2023-07-29T11:47:57;32.40;99.90
12602;DHT22;30282;16.436;99.370;2023-07-29T11:50:27;32.30;99.90
12602;DHT22;30282;16.436;99.370;2023-07-29T11:52:56;32.30;99.90
12602;DHT22;30282;16.436;99.370;2023-07-29T11:55:27;32.20;99.90
12602;DHT22;30282;16.436;99.370;2023-07-29T11:57:56;32.20;99.90
12602;DHT22;30282;16.436;99.370;2023-07-29T12:00:26;32.20;99.90
12602;DHT22;30282;16.436;99.370;2023-07-29T12:02:55;32.10;99.90
12602;DHT22;30282;16.436;99.370;2023-07-29T12:05:25;32.10;99.90
12602;DHT22;30282;16.436;99.370;2023-07-29T12:07:54;32.00;99.90
12602;DHT22;30282;16.436;99.370;2023-07-29T12:10:26;32.00;99.90
12602;DHT22;30282;16.436;99.370;2023-07-29T12:12:59;32.00;99.90
12602;DHT22;30282;16.436;99.370;2023-07-29T12:15:31;32.00;99.90
12602;DHT22;30282;16.436;99.370;2023-07-29T12:18:00;32.00;99.90
12602;DHT22;30282;16.436;99.370;2023-07-29T12:20:30;32.00;99.90
12602;DHT22;30282;16.436;99.370;2023-07-29T12:23:02;32.00;99.90
12602;DHT22;30282;16.436;99.370;2023-07-29T12:25:36;32.00;99.90
12602;DHT22;30282;16.436;99.370;2023-07-29T12:28:06;31.90;99.90
12602;DHT22;30282;16.436;99.370;2023-07-29T12:30:41;31.80;99.90
12602;DHT22;30282;16.436;99.370;2023-07-29T12:33:41;31.70;99.90
12602;DHT22;30282;16.436;99.370;2023-07-29T12:36:11;31.60;99.90
12602;DHT22;30282;16.436;99.370;2023-07-29T12:38:45;31.60;99.90
12602;DHT22;30282;16.436;99.370;2023-07-29T12:41:22;31.50;99.90
12602;DHT22;30282;16.436;99.370;2023-07-29T12:44:02;31.40;99.90
12602;DHT22;30282;16.436;99.370;2023-07-29T12:46:34;31.40;99.90
12602;DHT22;30282;16.436;99.370;2023-07-29T12:49:03;31.40;99.90
12602;DHT22;30282;16.436;99.370;2023-07-29T12:51:32;31.40;99.90
12602;DHT22;30282;16.436;99.370;2023-07-29T12:54:02;31.20;99.90
12602;DHT22;30282;16.436;99.370;2023-07-29T12:56:33;31.10;99.90
12602;DHT22;30282;16.436;99.370;2023-07-29T12:59:13;31.10;99.90
12602;DHT22;30282;16.436;99.370;2023-07-29T13:01:51;31.10;99.90
12602;DHT22;30282;16.436;99.370;2023-07-29T13:04:35;31.00;99.90
12602;DHT22;30282;16.436;99.370;2023-07-29T13:07:05;31.00;99.90
12602;DHT22;30282;16.436;99.370;2023-07-29T13:09:36;31.00;99.90
12602;DHT22;30282;16.436;99.370;2023-07-29T13:12:08;31.00;99.90
12602;DHT22;30282;16.436;99.370;2023-07-29T13:14:37;31.00;99.90
12602;DHT22;30282;16.436;99.370;2023-07-29T13:17:15;31.00;99.90
12602;DHT22;30282;16.436;99.370;2023-07-29T13:19:44;30.90;99.90
12602;DHT22;30282;16.436;99.370;2023-07-29T13:22:13;30.90;99.90
12602;DHT22;30282;16.436;99.370;2023-07-29T13:24:42;30.90;99.90
12602;DHT22;30282;16.436;99.370;2023-07-29T13:27:16;30.90;99.90
12602;DHT22;30282;16.436;99.370;2023-07-29T13:29:50;30.90;99.90
12602;DHT22;30282;16.436;99.370;2023-07-29T13:32:19;30.90;99.90
12602;DHT22;30282;16.436;99.370;2023-07-29T13:34:51;30.90;99.90
12602;DHT22;30282;16.436;99.370;2023-07-29T13:37:20;30.90;99.90
12602;DHT22;30282;16.436;99.370;2023-07-29T13:39:50;30.90;99.90
12602;DHT22;30282;16.436;99.370;2023-07-29T13:42:21;30.80;99.90
12602;DHT22;30282;16.436;99.370;2023-07-29T13:44:50;30.80;99.90
12602;DHT22;30282;16.436;99.370;2023-07-29T13:47:19;30.80;99.90
12602;DHT22;30282;16.436;99.370;2023-07-29T13:49:48;30.80;99.90
12602;DHT22;30282;16.436;99.370;2023-07-29T13:52:20;30.80;99.90
12602;DHT22;30282;16.436;99.370;2023-07-29T13:54:49;30.80;99.90
12602;DHT22;30282;16.436;99.370;2023-07-29T13:57:23;30.80;99.90
12602;DHT22;30282;16.436;99.370;2023-07-29T13:59:52;30.80;99.90
12602;DHT22;30282;16.436;99.370;2023-07-29T14:02:23;30.70;99.90
12602;DHT22;30282;16.436;99.370;2023-07-29T14:04:53;30.60;99.90
12602;DHT22;30282;16.436;99.370;2023-07-29T14:07:27;30.50;99.90
12602;DHT22;30282;16.436;99.370;2023-07-29T14:09:57;30.50;99.90
12602;DHT22;30282;16.436;99.370;2023-07-29T14:12:33;30.40;99.90
12602;DHT22;30282;16.436;99.370;2023-07-29T14:15:09;30.40;99.90
12602;DHT22;30282;16.436;99.370;2023-07-29T14:17:38;30.30;99.90
12602;DHT22;30282;16.436;99.370;2023-07-29T14:20:23;30.20;99.90
12602;DHT22;30282;16.436;99.370;2023-07-29T14:22:52;30.10;99.90
12602;DHT22;30282;16.436;99.370;2023-07-29T14:25:28;30.10;99.90
12602;DHT22;30282;16.436;99.370;2023-07-29T14:28:05;30.00;99.90
12602;DHT22;30282;16.436;99.370;2023-07-29T14:30:38;30.00;99.90
12602;DHT22;30282;16.436;99.370;2023-07-29T14:33:10;30.00;99.90
12602;DHT22;30282;16.436;99.370;2023-07-29T14:35:49;30.00;99.90
12602;DHT22;30282;16.436;99.370;2023-07-29T14:38:19;30.00;99.90
12602;DHT22;30282;16.436;99.370;2023-07-29T14:40:53;30.00;99.90
12602;DHT22;30282;16.436;99.370;2023-07-29T14:46:30;30.00;99.90
12602;DHT22;30282;16.436;99.370;2023-07-29T14:49:00;30.00;99.90
12602;DHT22;30282;16.436;99.370;2023-07-29T14:51:29;30.00;99.90
12602;DHT22;30282;16.436;99.370;2023-07-29T14:53:58;30.00;99.90
12602;DHT22;30282;16.436;99.370;2023-07-29T14:56:36;29.90;99.90
12602;DHT22;30282;16.436;99.370;2023-07-29T14:59:07;29.80;99.90
12602;DHT22;30282;16.436;99.370;2023-07-29T15:01:36;29.70;99.90
12602;DHT22;30282;16.436;99.370;2023-07-29T15:04:15;29.70;99.90
12602;DHT22;30282;16.436;99.370;2023-07-29T15:06:44;29.70;99.90
12602;DHT22;30282;16.436;99.370;2023-07-29T15:09:14;29.70;99.90
12602;DHT22;30282;16.436;99.370;2023-07-29T15:11:43;29.60;99.90
12602;DHT22;30282;16.436;99.370;2023-07-29T15:14:18;29.50;99.90
12602;DHT22;30282;16.436;99.370;2023-07-29T15:16:50;29.50;99.90
12602;DHT22;30282;16.436;99.370;2023-07-29T15:19:21;29.50;99.90
12602;DHT22;30282;16.436;99.370;2023-07-29T15:21:51;29.50;99.90
12602;DHT22;30282;16.436;99.370;2023-07-29T15:24:20;29.50;99.90
12602;DHT22;30282;16.436;99.370;2023-07-29T15:26:50;29.50;99.90
12602;DHT22;30282;16.436;99.370;2023-07-29T15:29:20;29.60;99.90
12602;DHT22;30282;16.436;99.370;2023-07-29T15:31:49;29.50;99.90
12602;DHT22;30282;16.436;99.370;2023-07-29T15:34:21;29.40;99.90
12602;DHT22;30282;16.436;99.370;2023-07-29T15:36:52;29.40;99.90
12602;DHT22;30282;16.436;99.370;2023-07-29T15:39:21;29.50;99.90
12602;DHT22;30282;16.436;99.370;2023-07-29T15:41:55;29.50;99.90
12602;DHT22;30282;16.436;99.370;2023-07-29T15:44:31;29.50;99.90